Archival Weather

Tokyo Intl

Tokyo, Japan (RJTT)

Report from: Tuesday, November 21, 2023 8:00 AM JST
Current time: Saturday, March 2, 2024 6:14 PM JST

Current weather – Weather history – Daily summaries
Weather forecast

Temperature12.0°C (53.6°F)
Dew point3.0°C (37.4°F)
Winds 4 kts (2.1 m/s, 4.6 mph) Vrb
Winds variableWinds variable from North-Northwest (340°) to East-Northeast (70°)
Visibility6.2 mi. (10 km)
Clouds Few clouds 3,000 ft. (914 m)
Altimeter30.27 in.Hg (1025 mB)
Relative humidity54 %
Density altitude-640 ft. (-195 m)
Remarks No significant changes expected in the next two hours
Flight conditions Visual Meteorological Conditions
Raw dataRJTT 202300Z 02004KT 340V070 9999 FEW030 12/03 Q1025 NOSIG
An error has occurred. This application may no longer respond until reloaded. Reload 🗙